Time;durP1;ratioP1;P1;durP2;ratioP2;P2;SDS_P1;SDS_P2;PMS_P1;PMS_P2;Temp;Humidity;BMP_temperature;BMP_pressure;BME280_temperature;BME280_humidity;BME280_pressure;Samples;Min_cycle;Max_cycle;Signal;HPM_P1;HPM_P2
2023/03/25 00:01:31;;;;;;;3.03;2.13;;;8.50;53.30;;;;;;5030804;28;45825;-66
2023/03/25 00:03:59;;;;;;;4.00;1.57;;;8.50;53.20;;;;;;5033507;28;46497;-66
2023/03/25 00:06:29;;;;;;;3.27;1.50;;;8.70;53.00;;;;;;5031014;28;46458;-66
2023/03/25 00:08:55;;;;;;;2.47;1.27;;;8.70;52.70;;;;;;5028896;28;46632;-66
2023/03/25 00:11:22;;;;;;;2.00;1.17;;;8.70;52.50;;;;;;5029395;28;46382;-66
2023/03/25 00:13:47;;;;;;;4.20;1.50;;;8.80;52.20;;;;;;5032965;28;45852;-66
2023/03/25 00:16:14;;;;;;;2.80;1.30;;;8.90;52.00;;;;;;5032787;28;46171;-66
2023/03/25 00:18:40;;;;;;;5.80;1.90;;;9.00;51.80;;;;;;5029713;28;46315;-66
2023/03/25 00:21:10;;;;;;;5.30;1.50;;;9.00;51.70;;;;;;5032349;28;45822;-66
2023/03/25 00:23:37;;;;;;;2.23;1.40;;;8.90;51.70;;;;;;5029965;28;46420;-66
2023/03/25 00:26:04;;;;;;;2.80;1.17;;;8.90;51.70;;;;;;5028275;28;46314;-65
2023/03/25 00:28:32;;;;;;;3.10;1.43;;;8.90;51.70;;;;;;5028171;28;46397;-66
2023/03/25 00:31:00;;;;;;;4.27;1.30;;;8.90;51.60;;;;;;5032846;28;45829;-67
2023/03/25 00:33:26;;;;;;;7.83;2.17;;;8.90;51.70;;;;;;5030058;28;45915;-67
2023/03/25 00:35:58;;;;;;;3.90;1.30;;;9.00;51.80;;;;;;5028543;28;46582;-67
2023/03/25 00:38:36;;;;;;;4.80;1.30;;;9.00;51.80;;;;;;5029841;28;46185;-66
2023/03/25 00:41:21;;;;;;;2.83;0.90;;;9.10;51.80;;;;;;5027126;28;46500;-66
2023/03/25 00:43:47;;;;;;;5.30;1.37;;;9.10;51.50;;;;;;5032739;28;46346;-66
2023/03/25 00:46:13;;;;;;;4.40;1.23;;;9.10;51.60;;;;;;5031153;28;46066;-66
2023/03/25 00:48:40;;;;;;;3.60;1.03;;;9.10;51.70;;;;;;5031252;28;46293;-66
2023/03/25 00:51:08;;;;;;;5.00;1.50;;;9.10;51.70;;;;;;5028997;28;45715;-66
2023/03/25 00:53:35;;;;;;;2.23;1.30;;;9.10;51.40;;;;;;5028245;28;46474;-66
2023/03/25 00:56:01;;;;;;;3.40;1.03;;;9.10;51.00;;;;;;5031815;28;46557;-66
2023/03/25 00:58:27;;;;;;;4.20;1.57;;;9.20;50.80;;;;;;5034748;28;46479;-65
2023/03/25 01:00:55;;;;;;;6.13;1.30;;;9.20;50.50;;;;;;5031019;28;45800;-66
2023/03/25 01:03:22;;;;;;;6.47;1.17;;;9.20;50.50;;;;;;5033231;28;46290;-67
2023/03/25 01:05:48;;;;;;;5.83;1.20;;;9.20;50.50;;;;;;5028455;28;47403;-67
2023/03/25 01:08:16;;;;;;;3.53;1.10;;;9.10;50.40;;;;;;5031795;28;46524;-67
2023/03/25 01:10:42;;;;;;;3.00;1.20;;;9.10;50.40;;;;;;5028321;28;46536;-66
2023/03/25 01:13:08;;;;;;;2.87;1.13;;;9.00;50.20;;;;;;5030191;28;46472;-66
2023/03/25 01:15:34;;;;;;;4.03;1.53;;;9.10;50.30;;;;;;5023039;28;46464;-65
2023/03/25 01:18:00;;;;;;;2.77;1.33;;;9.10;50.10;;;;;;5030432;28;46352;-66
2023/03/25 01:20:26;;;;;;;4.43;1.23;;;9.20;50.20;;;;;;5029032;28;46390;-67
2023/03/25 01:22:52;;;;;;;2.57;1.13;;;9.20;50.00;;;;;;5032689;28;46347;-66
2023/03/25 01:25:17;;;;;;;2.97;1.17;;;9.10;49.90;;;;;;5025010;28;46523;-64
2023/03/25 01:27:43;;;;;;;4.37;1.30;;;9.10;49.70;;;;;;5029579;28;46445;-65
2023/03/25 01:30:13;;;;;;;3.63;1.30;;;9.10;49.70;;;;;;5028700;28;46525;-66
2023/03/25 01:32:38;;;;;;;3.70;1.13;;;9.10;49.60;;;;;;5026627;28;46598;-64
2023/03/25 01:35:05;;;;;;;4.17;1.30;;;9.10;49.60;;;;;;5029270;28;47332;-65
2023/03/25 01:37:32;;;;;;;2.63;1.23;;;9.20;49.60;;;;;;5024980;28;46339;-65
2023/03/25 01:39:58;;;;;;;6.00;1.47;;;9.10;49.50;;;;;;5027467;28;46551;-67
2023/03/25 01:42:24;;;;;;;5.60;1.40;;;9.20;49.40;;;;;;5027176;28;45836;-65
2023/03/25 01:44:53;;;;;;;3.23;1.40;;;9.20;49.30;;;;;;5029375;28;46710;-66
2023/03/25 01:47:18;;;;;;;5.53;1.40;;;9.10;49.20;;;;;;5024807;28;46481;-64
2023/03/25 01:49:45;;;;;;;5.17;1.20;;;9.10;49.30;;;;;;5031615;28;46064;-66
2023/03/25 01:52:15;;;;;;;5.90;1.30;;;9.10;49.20;;;;;;5028112;28;46102;-66
2023/03/25 01:54:43;;;;;;;3.33;1.10;;;9.10;49.10;;;;;;5029717;28;47324;-64
2023/03/25 01:57:16;;;;;;;3.40;1.57;;;9.10;49.10;;;;;;5028864;28;46311;-65
2023/03/25 01:59:42;;;;;;;4.67;1.13;;;9.10;49.20;;;;;;5030919;28;46438;-65
2023/03/25 02:02:16;;;;;;;2.90;0.90;;;9.10;49.10;;;;;;5030905;28;46573;-65
2023/03/25 02:04:57;;;;;;;5.60;1.13;;;9.00;49.30;;;;;;5027533;28;46920;-66
2023/03/25 02:07:29;;;;;;;2.40;1.00;;;8.90;49.60;;;;;;5029733;28;45926;-66
2023/03/25 02:10:00;;;;;;;5.40;1.10;;;8.80;49.80;;;;;;5028758;28;46457;-65
2023/03/25 02:12:26;;;;;;;5.00;1.20;;;8.70;49.80;;;;;;5024820;28;46742;-65
2023/03/25 02:14:53;;;;;;;1.70;1.03;;;8.60;49.70;;;;;;5026990;28;46133;-65
2023/03/25 02:17:35;;;;;;;2.57;1.00;;;8.60;49.70;;;;;;5030124;28;46333;-65
2023/03/25 02:20:18;;;;;;;4.23;1.17;;;8.60;49.80;;;;;;5027567;28;46405;-66
2023/03/25 02:23:33;;;;;;;2.77;1.00;;;8.40;49.80;;;;;;5030939;28;46517;-66
2023/03/25 02:26:36;;;;;;;6.40;1.17;;;8.30;50.30;;;;;;5028776;28;47031;-66
2023/03/25 02:29:16;;;;;;;9.93;1.10;;;8.10;50.50;;;;;;5028180;28;46716;-65
2023/03/25 02:32:09;;;;;;;6.80;1.30;;;8.10;50.80;;;;;;5030341;28;46452;-64
2023/03/25 02:35:03;;;;;;;3.90;1.03;;;8.20;50.40;;;;;;5024364;28;46415;-63
2023/03/25 02:37:32;;;;;;;4.43;1.10;;;8.30;49.80;;;;;;5026812;28;46077;-64
2023/03/25 02:40:18;;;;;;;6.40;1.20;;;8.40;49.40;;;;;;5026567;28;46326;-65
2023/03/25 02:42:55;;;;;;;4.30;1.07;;;8.50;49.00;;;;;;5029810;28;46383;-65
2023/03/25 02:45:58;;;;;;;5.93;1.37;;;8.40;48.90;;;;;;5026539;28;46032;-64
2023/03/25 02:48:33;;;;;;;9.53;1.60;;;8.40;48.90;;;;;;5015071;28;46444;-64
2023/03/25 02:51:03;;;;;;;3.73;1.20;;;8.30;49.10;;;;;;5028112;28;46652;-65
2023/03/25 02:53:33;;;;;;;3.37;1.20;;;8.20;49.40;;;;;;5025863;28;46706;-65
2023/03/25 02:56:08;;;;;;;3.97;1.00;;;8.10;49.80;;;;;;5028500;28;46470;-65
2023/03/25 02:58:34;;;;;;;2.60;0.97;;;8.10;50.00;;;;;;5027311;28;47341;-65
2023/03/25 03:01:00;;;;;;;2.43;1.00;;;8.00;50.00;;;;;;5029878;28;45840;-65
2023/03/25 03:03:27;;;;;;;5.13;1.40;;;7.80;49.90;;;;;;5026779;28;46330;-65
2023/03/25 03:05:57;;;;;;;18.40;6.70;;;7.90;50.20;;;;;;5025692;28;45943;-65
2023/03/25 03:08:41;;;;;;;14.47;5.17;;;7.80;50.60;;;;;;5024502;28;47074;-66
2023/03/25 03:11:09;;;;;;;12.20;5.10;;;7.70;50.60;;;;;;5027954;28;46440;-65
2023/03/25 03:13:53;;;;;;;18.77;7.33;;;7.70;50.60;;;;;;5026826;28;46458;-64
2023/03/25 03:16:43;;;;;;;5.93;1.50;;;7.70;50.60;;;;;;5028318;28;46414;-64
2023/03/25 03:19:14;;;;;;;3.73;1.37;;;7.60;50.50;;;;;;5034108;28;46349;-65
2023/03/25 03:22:00;;;;;;;4.07;1.43;;;7.60;50.50;;;;;;5027197;28;46357;-64
2023/03/25 03:24:45;;;;;;;3.13;1.00;;;7.70;50.50;;;;;;5031402;28;46442;-65
2023/03/25 03:27:23;;;;;;;7.27;1.40;;;7.80;49.70;;;;;;5032422;28;46600;-64
2023/03/25 03:29:56;;;;;;;4.07;0.90;;;7.90;49.20;;;;;;5031640;28;47856;-65
2023/03/25 03:32:27;;;;;;;4.20;1.10;;;7.90;49.00;;;;;;5031466;28;46458;-64
2023/03/25 03:35:09;;;;;;;5.10;1.13;;;7.90;49.00;;;;;;5032901;28;46474;-65
2023/03/25 03:37:39;;;;;;;3.00;1.00;;;7.80;49.10;;;;;;5034087;28;46395;-65
2023/03/25 03:40:08;;;;;;;4.43;1.20;;;7.80;49.30;;;;;;5028415;28;47205;-65
2023/03/25 03:42:40;;;;;;;5.00;1.27;;;7.70;49.30;;;;;;5031041;28;46175;-65
2023/03/25 03:45:22;;;;;;;4.97;1.40;;;7.70;49.40;;;;;;5029554;28;46500;-66
2023/03/25 03:47:53;;;;;;;5.37;1.13;;;7.70;49.10;;;;;;5034712;28;45950;-66
2023/03/25 03:50:23;;;;;;;4.60;1.30;;;7.70;50.10;;;;;;5031448;28;46354;-64
2023/03/25 03:53:25;;;;;;;5.77;1.03;;;7.80;48.70;;;;;;5029713;28;46311;-64
2023/03/25 03:56:20;;;;;;;4.60;1.37;;;7.90;48.20;;;;;;5029806;28;46496;-64
2023/03/25 03:58:49;;;;;;;7.47;1.27;;;7.90;47.90;;;;;;5031555;28;46373;-64
2023/03/25 04:01:26;;;;;;;5.43;1.00;;;7.90;48.10;;;;;;5031099;28;47152;-64
2023/03/25 04:03:58;;;;;;;8.07;1.00;;;7.80;48.30;;;;;;5030579;28;46358;-65
2023/03/25 04:06:40;;;;;;;9.90;1.43;;;7.70;48.30;;;;;;5026077;28;46388;-64
2023/03/25 04:09:26;;;;;;;2.73;1.03;;;7.70;48.50;;;;;;5028606;28;46441;-65
2023/03/25 04:12:15;;;;;;;7.20;1.77;;;7.80;48.30;;;;;;5030632;28;46486;-64
2023/03/25 04:14:41;;;;;;;6.97;1.33;;;7.90;48.00;;;;;;5032688;28;46425;-64
2023/03/25 04:17:07;;;;;;;5.83;2.60;;;8.00;47.70;;;;;;5032104;28;46600;-64
2023/03/25 04:19:33;;;;;;;10.67;1.60;;;8.10;47.30;;;;;;5028551;28;46266;-66
2023/03/25 04:22:00;;;;;;;6.00;1.23;;;8.20;47.10;;;;;;5027648;28;48503;-65
2023/03/25 04:24:30;;;;;;;3.03;1.23;;;8.20;46.70;;;;;;5034331;28;45838;-66
2023/03/25 04:27:03;;;;;;;8.00;1.67;;;8.30;46.50;;;;;;5032159;28;46469;-65
2023/03/25 04:29:32;;;;;;;5.13;1.50;;;8.40;46.20;;;;;;5030351;28;46540;-65
2023/03/25 04:31:59;;;;;;;4.93;1.60;;;8.50;45.80;;;;;;5033164;28;46457;-65
2023/03/25 04:34:25;;;;;;;7.80;1.23;;;8.60;45.30;;;;;;5030031;28;46659;-65
2023/03/25 04:36:52;;;;;;;8.57;1.50;;;8.60;44.90;;;;;;5030508;28;45902;-65
2023/03/25 04:39:21;;;;;;;4.80;1.27;;;8.70;44.90;;;;;;5032593;28;46449;-65
2023/03/25 04:41:55;;;;;;;7.93;1.67;;;8.60;44.80;;;;;;5030520;28;46499;-65
2023/03/25 04:44:24;;;;;;;5.27;1.07;;;8.60;44.70;;;;;;5029418;28;47118;-65
2023/03/25 04:46:51;;;;;;;7.03;2.07;;;8.60;44.90;;;;;;5027835;28;46571;-65
2023/03/25 04:49:20;;;;;;;3.37;1.63;;;8.60;45.00;;;;;;5029792;28;46421;-65
2023/03/25 04:51:48;;;;;;;7.30;1.50;;;8.50;45.00;;;;;;5032066;28;46510;-65
2023/03/25 04:54:14;;;;;;;16.40;4.07;;;8.50;45.10;;;;;;5029072;28;46386;-66
2023/03/25 04:56:39;;;;;;;31.80;9.20;;;8.40;45.20;;;;;;5031869;28;45804;-64
2023/03/25 04:59:05;;;;;;;39.87;13.50;;;8.40;45.40;;;;;;5032212;28;45898;-65
2023/03/25 05:01:31;;;;;;;45.13;14.63;;;8.30;45.20;;;;;;5031939;28;46476;-65
2023/03/25 05:04:05;;;;;;;35.03;13.20;;;8.30;45.20;;;;;;5034343;28;46291;-64
2023/03/25 05:06:32;;;;;;;28.53;10.20;;;8.40;45.30;;;;;;5037536;28;46310;-65
2023/03/25 05:09:00;;;;;;;20.27;8.17;;;8.30;45.00;;;;;;5034911;28;46353;-64
2023/03/25 05:11:27;;;;;;;28.30;9.83;;;8.30;45.10;;;;;;5029717;28;46356;-63
2023/03/25 05:13:53;;;;;;;20.43;8.43;;;8.30;45.00;;;;;;5030670;28;45783;-64
2023/03/25 05:16:19;;;;;;;19.80;8.40;;;8.20;45.00;;;;;;5038853;28;46391;-66
2023/03/25 05:18:44;;;;;;;5.87;2.47;;;8.20;45.10;;;;;;5032525;28;45858;-64
2023/03/25 05:21:11;;;;;;;4.03;0.90;;;8.30;45.10;;;;;;5030132;28;46950;-64
2023/03/25 05:23:37;;;;;;;5.80;2.33;;;8.20;45.10;;;;;;5032331;28;46421;-65
2023/03/25 05:26:03;;;;;;;6.37;2.80;;;8.20;45.20;;;;;;5030094;28;45843;-65
2023/03/25 05:28:29;;;;;;;7.80;3.40;;;8.20;45.20;;;;;;5029860;28;46552;-62
2023/03/25 05:30:55;;;;;;;7.50;3.53;;;8.20;45.30;;;;;;5030180;28;48189;-65
2023/03/25 05:33:21;;;;;;;4.73;2.20;;;8.10;45.10;;;;;;5027892;28;46339;-64
2023/03/25 05:35:47;;;;;;;8.77;4.30;;;8.10;45.20;;;;;;5030101;28;46389;-64
2023/03/25 05:38:17;;;;;;;7.67;2.50;;;8.20;45.20;;;;;;5024842;28;46912;-65
2023/03/25 05:40:45;;;;;;;5.87;1.80;;;8.20;45.00;;;;;;5030546;28;46668;-65
2023/03/25 05:43:13;;;;;;;2.80;1.30;;;8.20;45.00;;;;;;5032366;28;46369;-66
2023/03/25 05:45:40;;;;;;;3.10;1.33;;;8.20;45.00;;;;;;5027268;28;46451;-66
2023/03/25 05:48:07;;;;;;;7.43;3.50;;;8.20;45.10;;;;;;5033536;28;46373;-64
2023/03/25 05:50:33;;;;;;;5.93;3.57;;;8.20;45.00;;;;;;5032478;28;47045;-64
2023/03/25 05:52:58;;;;;;;6.47;3.43;;;8.20;44.90;;;;;;5028011;28;46457;-64
2023/03/25 05:55:25;;;;;;;7.40;4.17;;;8.20;44.70;;;;;;5033429;28;46396;-64
2023/03/25 05:57:50;;;;;;;9.20;5.10;;;8.30;44.50;;;;;;5033538;28;46423;-64
2023/03/25 06:00:22;;;;;;;5.07;2.80;;;8.20;44.60;;;;;;5029945;28;46271;-64
2023/03/25 06:02:48;;;;;;;3.10;1.50;;;8.20;44.30;;;;;;5028172;28;46405;-64
2023/03/25 06:05:14;;;;;;;3.63;2.13;;;8.20;44.20;;;;;;5031785;28;46569;-65
2023/03/25 06:07:46;;;;;;;3.10;1.10;;;8.20;44.00;;;;;;5027975;28;46415;-66
2023/03/25 06:10:15;;;;;;;2.80;0.90;;;8.20;43.50;;;;;;5031982;28;46739;-67
2023/03/25 06:12:42;;;;;;;2.50;0.93;;;8.20;43.50;;;;;;5029043;28;46401;-66
2023/03/25 06:15:10;;;;;;;2.13;0.97;;;8.20;43.20;;;;;;5028424;28;46265;-66
2023/03/25 06:17:39;;;;;;;1.83;0.87;;;8.20;43.10;;;;;;5028347;28;46716;-66
2023/03/25 06:20:09;;;;;;;2.30;0.80;;;8.20;42.80;;;;;;5028662;28;47076;-66
2023/03/25 06:22:41;;;;;;;2.13;1.00;;;8.20;42.60;;;;;;5027066;28;46383;-66
2023/03/25 06:25:09;;;;;;;2.80;0.90;;;8.20;42.40;;;;;;5025957;28;46398;-66
2023/03/25 06:27:39;;;;;;;4.03;1.00;;;8.30;42.20;;;;;;5028884;28;46562;-66
2023/03/25 06:30:06;;;;;;;5.43;3.33;;;8.30;42.00;;;;;;5027979;28;46390;-67
2023/03/25 06:32:32;;;;;;;2.07;1.50;;;8.30;42.00;;;;;;5031716;28;46419;-65
2023/03/25 06:34:57;;;;;;;4.23;1.80;;;8.30;42.00;;;;;;5029217;28;46389;-64
2023/03/25 06:37:25;;;;;;;1.63;0.90;;;8.20;42.10;;;;;;5031684;28;46429;-63
2023/03/25 06:39:55;;;;;;;5.13;1.10;;;8.20;42.10;;;;;;5026027;28;47045;-63
2023/03/25 06:42:27;;;;;;;1.73;0.70;;;8.10;42.20;;;;;;5030064;28;46411;-62
2023/03/25 06:44:54;;;;;;;1.40;0.70;;;8.10;42.30;;;;;;5029137;28;46428;-64
2023/03/25 06:47:20;;;;;;;2.70;0.70;;;8.00;42.60;;;;;;5029182;28;46590;-63
2023/03/25 06:49:46;;;;;;;2.20;0.80;;;7.90;42.70;;;;;;5030976;28;46614;-64
2023/03/25 06:52:12;;;;;;;5.27;0.80;;;8.00;43.00;;;;;;5026214;28;46458;-66
2023/03/25 06:54:38;;;;;;;3.33;1.10;;;8.00;42.80;;;;;;5024727;28;46295;-64
2023/03/25 06:57:04;;;;;;;2.00;0.97;;;8.30;42.60;;;;;;5027905;28;46366;-65
2023/03/25 06:59:30;;;;;;;2.13;0.83;;;8.80;42.10;;;;;;5029597;28;46421;-65
2023/03/25 07:01:56;;;;;;;5.20;1.40;;;9.10;41.30;;;;;;5033377;28;46611;-64
2023/03/25 07:04:22;;;;;;;3.00;1.00;;;9.30;40.70;;;;;;5032595;28;46430;-64
2023/03/25 07:06:47;;;;;;;3.10;0.90;;;9.20;40.70;;;;;;5031356;28;46409;-63
2023/03/25 07:09:14;;;;;;;2.90;1.03;;;9.00;40.90;;;;;;5029471;28;46399;-64
2023/03/25 07:11:40;;;;;;;2.23;1.10;;;8.90;41.10;;;;;;5033434;28;46408;-64
2023/03/25 07:14:05;;;;;;;3.90;1.20;;;9.00;41.00;;;;;;5034807;28;46725;-63
2023/03/25 07:16:31;;;;;;;2.60;0.90;;;9.00;41.00;;;;;;5029845;28;46462;-63
2023/03/25 07:18:57;;;;;;;3.43;1.00;;;9.20;40.60;;;;;;5026868;28;47276;-63
2023/03/25 07:21:24;;;;;;;2.47;0.70;;;9.40;40.30;;;;;;5026526;28;46549;-64
2023/03/25 07:23:50;;;;;;;2.73;1.00;;;9.40;39.90;;;;;;5027713;28;45946;-64
2023/03/25 07:26:15;;;;;;;3.40;1.23;;;9.30;39.90;;;;;;5028326;28;46595;-64
2023/03/25 07:28:42;;;;;;;3.23;1.00;;;9.20;40.30;;;;;;5026394;28;48631;-65
2023/03/25 07:31:11;;;;;;;2.70;1.30;;;9.20;40.50;;;;;;5031306;28;45907;-64
2023/03/25 07:33:37;;;;;;;3.43;0.97;;;9.10;40.50;;;;;;5027063;28;46465;-64
2023/03/25 07:36:05;;;;;;;8.90;1.77;;;9.40;40.50;;;;;;5034888;28;46526;-63
2023/03/25 07:38:31;;;;;;;2.57;1.00;;;9.50;39.90;;;;;;5027035;28;47098;-63
2023/03/25 07:40:57;;;;;;;1.87;0.80;;;9.50;39.90;;;;;;5025590;28;45805;-64
2023/03/25 07:43:22;;;;;;;7.13;0.90;;;9.60;40.30;;;;;;5029669;28;46334;-64
2023/03/25 07:45:48;;;;;;;1.80;0.80;;;9.80;40.20;;;;;;5027153;28;45946;-64
2023/03/25 07:48:15;;;;;;;3.27;1.00;;;10.10;38.60;;;;;;5028860;28;46472;-64
2023/03/25 07:50:42;;;;;;;4.27;1.07;;;10.40;38.80;;;;;;5027860;28;46413;-65
2023/03/25 07:53:08;;;;;;;4.40;1.00;;;10.70;38.30;;;;;;5027284;28;46467;-64
2023/03/25 07:55:34;;;;;;;5.50;1.13;;;10.90;37.80;;;;;;5023109;28;46602;-64
2023/03/25 07:58:01;;;;;;;3.37;0.90;;;10.90;37.30;;;;;;5025904;28;46405;-64
2023/03/25 08:00:28;;;;;;;2.93;0.90;;;11.00;37.20;;;;;;5028124;28;46477;-64
2023/03/25 08:02:54;;;;;;;12.53;0.80;;;11.00;36.80;;;;;;5028169;28;45901;-64
2023/03/25 08:05:20;;;;;;;2.10;0.70;;;10.80;36.70;;;;;;5029919;28;46509;-64
2023/03/25 08:07:49;;;;;;;1.93;0.90;;;10.70;36.60;;;;;;5027169;28;46401;-65
2023/03/25 08:10:16;;;;;;;1.40;0.70;;;10.80;36.40;;;;;;5026592;28;46468;-64
2023/03/25 08:12:43;;;;;;;1.77;0.90;;;11.00;36.10;;;;;;5029259;28;46738;-63
2023/03/25 08:15:10;;;;;;;3.17;1.10;;;11.20;35.70;;;;;;5029230;28;45895;-65
2023/03/25 08:17:37;;;;;;;1.80;0.87;;;11.30;35.20;;;;;;5034028;28;47184;-64
2023/03/25 08:20:04;;;;;;;1.77;0.70;;;11.60;35.00;;;;;;5026605;28;46885;-64
2023/03/25 08:22:30;;;;;;;1.60;0.77;;;11.70;34.60;;;;;;5031467;28;46701;-65
2023/03/25 08:24:56;;;;;;;1.90;0.70;;;11.60;35.60;;;;;;5034927;28;46534;-64
2023/03/25 08:27:22;;;;;;;1.60;0.77;;;11.50;34.50;;;;;;5030460;28;46481;-64
2023/03/25 08:29:53;;;;;;;3.30;0.90;;;11.20;34.80;;;;;;5028261;28;46212;-64
2023/03/25 08:32:26;;;;;;;1.70;0.93;;;11.00;34.80;;;;;;5032014;28;46360;-65
2023/03/25 08:34:51;;;;;;;1.83;0.77;;;10.80;35.00;;;;;;5029026;28;46385;-64
2023/03/25 08:37:17;;;;;;;2.90;0.90;;;10.70;35.50;;;;;;5033371;28;46160;-64
2023/03/25 08:39:43;;;;;;;2.73;1.67;;;10.60;35.70;;;;;;5039519;28;46463;-64
2023/03/25 08:42:11;;;;;;;1.70;0.80;;;10.60;35.80;;;;;;5029842;28;46508;-64
2023/03/25 08:44:37;;;;;;;3.00;0.80;;;10.50;36.00;;;;;;5030794;28;46694;-64
2023/03/25 08:47:02;;;;;;;3.40;0.90;;;10.50;36.10;;;;;;5030128;28;46452;-64
2023/03/25 08:49:28;;;;;;;1.80;0.70;;;10.60;35.90;;;;;;5032528;28;46503;-64
2023/03/25 08:51:56;;;;;;;1.77;0.70;;;10.80;35.60;;;;;;5024067;28;46627;-66
2023/03/25 08:54:23;;;;;;;6.90;0.83;;;11.00;35.50;;;;;;5028193;28;46412;-65
2023/03/25 08:56:51;;;;;;;5.00;1.00;;;11.30;35.00;;;;;;5023540;28;46362;-65
2023/03/25 08:59:16;;;;;;;1.97;0.90;;;11.80;34.30;;;;;;5030360;28;46448;-65
2023/03/25 09:01:43;;;;;;;2.47;0.90;;;12.30;33.50;;;;;;5030468;28;46710;-65
2023/03/25 09:04:09;;;;;;;1.57;0.70;;;12.50;32.60;;;;;;5028030;28;46441;-66
2023/03/25 09:06:35;;;;;;;1.60;0.80;;;12.80;32.20;;;;;;5027602;28;46580;-65
2023/03/25 09:09:03;;;;;;;8.67;1.60;;;13.10;31.20;;;;;;5031430;28;45815;-66
2023/03/25 09:11:29;;;;;;;1.90;0.90;;;13.10;31.00;;;;;;5030352;28;46478;-65
2023/03/25 09:13:54;;;;;;;3.00;1.00;;;13.00;30.70;;;;;;5026327;28;46760;-66
2023/03/25 09:16:20;;;;;;;2.77;1.00;;;12.80;30.10;;;;;;5025179;28;46406;-66
2023/03/25 09:18:45;;;;;;;3.40;1.50;;;12.70;30.20;;;;;;5033021;28;46656;-66
2023/03/25 09:21:11;;;;;;;3.63;0.90;;;12.60;30.40;;;;;;5034242;28;46464;-67
2023/03/25 09:23:36;;;;;;;2.57;1.00;;;12.70;30.50;;;;;;5028198;28;46569;-66
2023/03/25 09:26:04;;;;;;;4.33;1.10;;;12.60;30.10;;;;;;5029258;28;47033;-66
2023/03/25 09:28:29;;;;;;;5.17;1.10;;;12.30;30.40;;;;;;5034015;28;46505;-67
2023/03/25 09:30:55;;;;;;;3.37;0.97;;;12.20;30.70;;;;;;5028683;28;47099;-66
2023/03/25 09:33:21;;;;;;;4.20;1.00;;;12.20;30.30;;;;;;5030298;28;46395;-67
2023/03/25 09:35:47;;;;;;;3.20;1.00;;;12.30;30.20;;;;;;5027276;28;46477;-66
2023/03/25 09:38:13;;;;;;;2.23;0.90;;;12.40;29.90;;;;;;5029889;28;47461;-66
2023/03/25 09:40:43;;;;;;;6.43;1.40;;;12.50;29.20;;;;;;5027347;28;46490;-65
2023/03/25 09:43:28;;;;;;;5.00;2.00;;;12.80;28.60;;;;;;5029246;28;45932;-64
2023/03/25 09:45:54;;;;;;;4.37;1.10;;;13.00;28.20;;;;;;5025872;28;47634;-64
2023/03/25 09:48:33;;;;;;;2.67;0.90;;;13.30;28.60;;;;;;5028009;28;46467;-66
2023/03/25 09:51:10;;;;;;;2.97;1.10;;;13.60;27.50;;;;;;5027506;28;46410;-64
2023/03/25 09:53:59;;;;;;;2.43;1.20;;;13.50;27.60;;;;;;5028369;28;45864;-66
2023/03/25 09:56:30;;;;;;;4.00;1.10;;;13.20;27.40;;;;;;5025320;28;47287;-67
2023/03/25 09:59:01;;;;;;;6.37;1.17;;;12.90;28.20;;;;;;5026672;28;46338;-66
2023/03/25 10:01:51;;;;;;;2.60;0.80;;;12.90;28.20;;;;;;5026491;28;46612;-66
2023/03/25 10:04:19;;;;;;;5.73;1.70;;;12.90;28.00;;;;;;5027793;28;46504;-67
2023/03/25 10:07:18;;;;;;;3.20;0.90;;;12.80;28.10;;;;;;5025238;28;47910;-66
2023/03/25 10:10:00;;;;;;;2.30;1.00;;;12.60;27.90;;;;;;5027291;28;46410;-65
2023/03/25 10:12:32;;;;;;;3.97;1.20;;;12.50;27.90;;;;;;5029649;28;46305;-65
2023/03/25 10:15:15;;;;;;;3.43;0.83;;;12.40;27.80;;;;;;5024868;28;46894;-66
2023/03/25 10:17:55;;;;;;;3.50;1.80;;;12.20;27.70;;;;;;5032922;28;46440;-67
2023/03/25 10:20:30;;;;;;;3.00;1.00;;;12.10;27.90;;;;;;5027274;28;46382;-66
2023/03/25 10:23:20;;;;;;;2.57;1.20;;;12.10;27.70;;;;;;5025646;28;46497;-68
2023/03/25 10:25:52;;;;;;;5.80;2.40;;;12.20;27.70;;;;;;5027155;28;46490;-67
2023/03/25 10:28:30;;;;;;;1.90;0.80;;;12.30;27.70;;;;;;5026765;28;47002;-63
2023/03/25 10:30:55;;;;;;;3.37;1.30;;;12.30;27.70;;;;;;5029057;28;46578;-65
2023/03/25 10:33:35;;;;;;;2.00;1.03;;;12.30;27.70;;;;;;5025068;28;46714;-65
2023/03/25 10:36:05;;;;;;;2.83;1.10;;;12.40;27.80;;;;;;5027689;28;46662;-64
2023/03/25 10:38:34;;;;;;;2.57;0.90;;;12.30;27.70;;;;;;5024971;28;46825;-65
2023/03/25 10:41:17;;;;;;;6.00;0.80;;;12.20;27.70;;;;;;5027059;28;46303;-66
2023/03/25 10:43:43;;;;;;;2.30;1.00;;;12.40;27.80;;;;;;5028515;28;46488;-67
2023/03/25 10:46:54;;;;;;;3.50;1.00;;;12.60;27.90;;;;;;5025564;28;46015;-67
2023/03/25 10:49:21;;;;;;;4.60;1.00;;;12.90;27.40;;;;;;5020553;28;46577;-65
2023/03/25 10:51:51;;;;;;;2.13;0.90;;;13.00;27.30;;;;;;5027000;28;45805;-65
2023/03/25 10:54:17;;;;;;;2.27;0.90;;;13.00;27.10;;;;;;5030937;28;46733;-66
2023/03/25 10:56:48;;;;;;;5.83;0.80;;;13.10;27.20;;;;;;5028298;28;46407;-67
2023/03/25 10:59:46;;;;;;;2.63;1.00;;;13.20;26.90;;;;;;5031399;28;46997;-67
2023/03/25 11:02:32;;;;;;;3.60;1.30;;;13.20;26.80;;;;;;5027653;28;45823;-66
2023/03/25 11:05:03;;;;;;;3.40;1.47;;;13.10;27.10;;;;;;5026298;28;46675;-67
2023/03/25 11:07:41;;;;;;;1.63;0.80;;;13.40;28.00;;;;;;5033218;28;46045;-65
2023/03/25 11:10:12;;;;;;;1.47;0.70;;;13.60;26.70;;;;;;5027016;28;47152;-66
2023/03/25 11:12:44;;;;;;;2.20;0.80;;;13.60;26.40;;;;;;5024491;28;46416;-65
2023/03/25 11:15:21;;;;;;;1.60;0.80;;;13.50;26.30;;;;;;5024070;28;46504;-67
2023/03/25 11:17:55;;;;;;;2.23;0.97;;;13.40;26.30;;;;;;5022881;28;45943;-66
2023/03/25 11:20:26;;;;;;;2.07;0.83;;;13.20;26.40;;;;;;5026953;28;46460;-66
2023/03/25 11:22:53;;;;;;;2.00;0.63;;;13.10;26.80;;;;;;5028286;28;46680;-66
2023/03/25 11:25:30;;;;;;;3.90;1.03;;;13.00;26.80;;;;;;5029249;28;46508;-66
2023/03/25 11:28:00;;;;;;;4.60;0.90;;;12.90;26.90;;;;;;5028021;28;46300;-64
2023/03/25 11:30:26;;;;;;;1.70;0.77;;;12.70;27.10;;;;;;5020967;28;48087;-65
2023/03/25 11:33:18;;;;;;;4.07;1.00;;;12.50;27.50;;;;;;5029240;28;46957;-65
2023/03/25 11:35:45;;;;;;;3.37;0.93;;;12.40;27.80;;;;;;5022948;28;46448;-66
2023/03/25 11:38:18;;;;;;;2.33;0.80;;;12.50;27.70;;;;;;5025593;28;46522;-67
2023/03/25 11:40:56;;;;;;;1.60;0.70;;;12.90;26.80;;;;;;5026900;28;47943;-65
2023/03/25 11:43:26;;;;;;;1.90;0.70;;;13.70;26.20;;;;;;5027614;28;46390;-65
2023/03/25 11:45:52;;;;;;;2.37;0.70;;;14.00;25.70;;;;;;5031645;28;46385;-66
2023/03/25 11:48:21;;;;;;;2.87;1.50;;;13.90;25.50;;;;;;5029292;28;46481;-65
2023/03/25 11:50:52;;;;;;;2.17;0.83;;;13.90;25.50;;;;;;5024954;28;46310;-65
2023/03/25 11:53:20;;;;;;;3.00;0.80;;;14.00;25.30;;;;;;5035280;28;46599;-67
2023/03/25 11:55:49;;;;;;;1.97;0.90;;;13.80;25.50;;;;;;5025421;28;46691;-66
2023/03/25 11:58:20;;;;;;;3.13;0.80;;;13.40;25.70;;;;;;5028201;28;46379;-65
2023/03/25 12:00:48;;;;;;;3.10;0.90;;;13.20;25.90;;;;;;5027850;28;46305;-66
2023/03/25 12:03:13;;;;;;;2.33;0.90;;;13.00;25.90;;;;;;5030238;28;46543;-65
2023/03/25 12:05:40;;;;;;;2.33;0.70;;;13.00;26.00;;;;;;5027654;28;46479;-65
2023/03/25 12:08:15;;;;;;;1.83;0.83;;;12.90;25.70;;;;;;5028619;28;46481;-64
2023/03/25 12:10:56;;;;;;;3.43;0.80;;;12.80;26.80;;;;;;5030797;28;47130;-66
2023/03/25 12:13:45;;;;;;;1.90;0.80;;;12.70;26.10;;;;;;5027819;28;46441;-66
2023/03/25 12:16:25;;;;;;;2.13;0.80;;;12.80;26.20;;;;;;5030965;28;46477;-66
2023/03/25 12:19:26;;;;;;;1.87;0.90;;;12.90;26.00;;;;;;5024004;28;46706;-68
2023/03/25 12:22:00;;;;;;;4.23;1.10;;;12.90;25.70;;;;;;5014679;28;46549;-66
2023/03/25 12:24:41;;;;;;;2.43;1.20;;;12.70;27.10;;;;;;5021104;28;46599;-66
2023/03/25 12:27:58;;;;;;;2.53;1.00;;;12.60;26.40;;;;;;5020313;28;46575;-66
2023/03/25 12:30:36;;;;;;;1.80;0.80;;;12.60;26.70;;;;;;5013764;28;46160;-65
2023/03/25 12:33:14;;;;;;;2.10;1.00;;;12.50;26.60;;;;;;5021054;28;47065;-66
2023/03/25 12:35:55;;;;;;;3.20;1.10;;;12.50;26.90;;;;;;5020183;28;46623;-66
2023/03/25 12:38:50;;;;;;;6.73;2.50;;;12.50;27.00;;;;;;5021370;28;46581;-66
2023/03/25 12:41:41;;;;;;;3.67;1.47;;;12.40;27.20;;;;;;5020884;28;46971;-68
2023/03/25 12:44:47;;;;;;;3.60;1.63;;;12.20;27.70;;;;;;5019451;28;46725;-66
2023/03/25 12:47:32;;;;;;;2.40;1.00;;;12.30;27.70;;;;;;5012767;28;46623;-66
2023/03/25 12:50:02;;;;;;;1.40;0.60;;;12.50;27.90;;;;;;5022065;28;46571;-64
2023/03/25 12:52:30;;;;;;;1.63;0.70;;;12.40;27.80;;;;;;5021613;28;46764;-66
2023/03/25 12:55:21;;;;;;;2.70;0.80;;;12.30;27.70;;;;;;5020429;28;47649;-65
2023/03/25 12:58:11;;;;;;;2.03;0.70;;;12.30;28.70;;;;;;5020326;28;46590;-65
2023/03/25 13:00:55;;;;;;;4.63;0.83;;;12.30;27.20;;;;;;5020926;28;46848;-66
2023/03/25 13:03:33;;;;;;;2.60;1.10;;;12.50;27.10;;;;;;5020910;28;46686;-66
2023/03/25 13:06:07;;;;;;;1.50;0.70;;;12.50;26.90;;;;;;5020934;28;47524;-65
2023/03/25 13:09:02;;;;;;;3.63;0.70;;;12.50;26.50;;;;;;5021053;28;46563;-66
2023/03/25 13:11:50;;;;;;;3.97;0.70;;;12.80;26.40;;;;;;5021831;28;45934;-65
2023/03/25 13:14:32;;;;;;;1.80;0.80;;;13.30;25.70;;;;;;5020417;28;46687;-66
2023/03/25 13:17:04;;;;;;;1.90;0.80;;;13.20;25.40;;;;;;5020036;28;46973;-65